createdAt,value
2017-11-17T00:00:28.052Z,98580.86
2017-11-17T00:01:32.927Z,98585.23
2017-11-17T00:02:37.718Z,98584.59
2017-11-17T00:03:42.455Z,98580.84
2017-11-17T00:04:47.066Z,98585.54
2017-11-17T00:05:51.696Z,98585.81
2017-11-17T00:06:56.616Z,98582.36
2017-11-17T00:08:01.245Z,98585.25
2017-11-17T00:09:06.113Z,98584.45
2017-11-17T00:10:10.836Z,98578.42
2017-11-17T00:11:15.606Z,98582.80
2017-11-17T00:12:20.301Z,98583.00
2017-11-17T00:13:25.274Z,98580.41
2017-11-17T00:14:29.984Z,98583.09
2017-11-17T00:15:34.687Z,98584.86
2017-11-17T00:16:39.367Z,98583.48
2017-11-17T00:17:44.079Z,98583.24
2017-11-17T00:18:48.832Z,98583.65
2017-11-17T00:19:53.837Z,98588.69
2017-11-17T00:20:58.556Z,98586.69
2017-11-17T00:22:03.314Z,98585.42
2017-11-17T00:23:08.144Z,98582.35
2017-11-17T00:24:12.901Z,98587.34
2017-11-17T00:25:17.687Z,98579.78
2017-11-17T00:26:22.831Z,98587.58
2017-11-17T00:27:27.618Z,98586.64
2017-11-17T00:28:32.382Z,98588.73
2017-11-17T00:29:37.145Z,98591.87
2017-11-17T00:30:41.976Z,98595.98
2017-11-17T00:31:46.811Z,98591.78
2017-11-17T00:32:51.906Z,98595.38
2017-11-17T00:33:56.644Z,98598.56
2017-11-17T00:35:01.494Z,98590.97
2017-11-17T00:36:07.027Z,98591.05
2017-11-17T00:37:11.813Z,98592.25
2017-11-17T00:38:16.587Z,98593.94
2017-11-17T00:39:21.688Z,98593.32
2017-11-17T00:40:26.466Z,98592.88
2017-11-17T00:41:31.284Z,98594.38
2017-11-17T00:42:36.094Z,98587.82
2017-11-17T00:43:40.884Z,98589.61
2017-11-17T00:44:45.648Z,98593.16
2017-11-17T00:45:50.626Z,98592.91
2017-11-17T00:46:55.282Z,98588.84
2017-11-17T00:47:59.953Z,98590.17
2017-11-17T00:49:05.756Z,98598.58
2017-11-17T00:50:10.495Z,98594.66
2017-11-17T00:51:15.528Z,98594.66
2017-11-17T00:52:20.235Z,98595.61
2017-11-17T00:53:24.950Z,98596.25
2017-11-17T00:54:29.568Z,98598.66
2017-11-17T00:55:34.228Z,98597.67
2017-11-17T00:56:38.925Z,98598.13
2017-11-17T00:57:43.945Z,98601.84
2017-11-17T00:58:48.623Z,98603.53
2017-11-17T00:59:53.303Z,98596.14
2017-11-17T01:00:58.058Z,98599.54
2017-11-17T01:02:02.761Z,98601.83
2017-11-17T01:03:07.457Z,98599.41
2017-11-17T01:04:12.442Z,98602.34
2017-11-17T01:05:17.104Z,98603.91
2017-11-17T01:06:21.870Z,98598.70
2017-11-17T01:07:26.550Z,98606.06
2017-11-17T01:08:31.257Z,98599.79
2017-11-17T01:09:36.134Z,98602.92
2017-11-17T01:10:41.031Z,98600.92
2017-11-17T01:11:45.728Z,98596.95
2017-11-17T01:12:50.419Z,98604.77
2017-11-17T01:13:55.198Z,98599.09
2017-11-17T01:14:59.950Z,98600.34
2017-11-17T01:16:04.900Z,98601.95
2017-11-17T01:17:10.759Z,98602.98
2017-11-17T01:18:15.515Z,98608.97
2017-11-17T01:19:20.221Z,98602.96
2017-11-17T01:20:24.865Z,98601.66
2017-11-17T01:21:29.449Z,98597.00
2017-11-17T01:22:34.065Z,98594.00
2017-11-17T01:23:39.084Z,98590.02
2017-11-17T01:24:43.880Z,98596.69
2017-11-17T01:25:48.676Z,98599.16
2017-11-17T01:26:53.377Z,98601.00
2017-11-17T01:27:58.060Z,98598.92
2017-11-17T01:29:02.757Z,98600.90
2017-11-17T01:30:07.726Z,98606.69
2017-11-17T01:31:12.439Z,98601.77
2017-11-17T01:32:17.109Z,98600.53
2017-11-17T01:33:21.796Z,98602.56
2017-11-17T01:34:26.466Z,98601.14
2017-11-17T01:35:31.169Z,98599.02
2017-11-17T01:36:36.756Z,98604.14
2017-11-17T01:37:41.435Z,98603.72
2017-11-17T01:38:46.221Z,98606.35
2017-11-17T01:39:50.955Z,98607.28
2017-11-17T01:40:55.655Z,98605.14
2017-11-17T01:42:00.335Z,98604.63
2017-11-17T01:43:05.315Z,98604.23
2017-11-17T01:44:09.991Z,98598.84
2017-11-17T01:45:15.072Z,98602.12
2017-11-17T01:46:19.745Z,98598.84
2017-11-17T01:47:24.446Z,98600.84
2017-11-17T01:48:29.122Z,98598.06
2017-11-17T01:49:34.098Z,98596.75
2017-11-17T01:50:38.761Z,98599.15
2017-11-17T01:51:43.440Z,98593.08
2017-11-17T01:52:48.121Z,98589.69
2017-11-17T01:53:53.012Z,98595.75
2017-11-17T01:54:57.672Z,98588.97
2017-11-17T01:56:02.695Z,98595.24
2017-11-17T01:57:07.368Z,98591.47
2017-11-17T01:58:12.057Z,98591.85
2017-11-17T01:59:16.752Z,98595.84
2017-11-17T02:16:28.639Z,98606.28
2017-11-17T02:17:33.425Z,98609.91
2017-11-17T02:18:38.186Z,98610.99
2017-11-17T02:19:42.955Z,98610.77
2017-11-17T02:20:47.788Z,98604.64
2017-11-17T02:21:52.843Z,98602.94
2017-11-17T02:22:57.671Z,98604.86
2017-11-17T02:24:02.436Z,98604.94
2017-11-17T02:25:07.191Z,98596.57
2017-11-17T02:26:11.975Z,98593.38
2017-11-17T02:27:16.772Z,98588.47
2017-11-17T02:28:22.011Z,98597.66
2017-11-17T02:29:26.779Z,98590.63
2017-11-17T02:30:31.590Z,98588.81
2017-11-17T02:31:36.371Z,98588.63
2017-11-17T02:32:47.753Z,98591.30
2017-11-17T02:33:52.383Z,98589.14
2017-11-17T02:34:57.380Z,98594.12
2017-11-17T02:36:02.163Z,98592.27
2017-11-17T02:37:06.959Z,98590.03
2017-11-17T02:38:12.583Z,98590.87
2017-11-17T02:39:17.425Z,98597.84
2017-11-17T02:40:22.217Z,98598.91
2017-11-17T02:41:27.306Z,98593.56
2017-11-17T02:42:32.076Z,98595.41
2017-11-17T02:43:36.854Z,98598.52
2017-11-17T02:44:42.577Z,98600.93
2017-11-17T02:45:47.367Z,98595.66
2017-11-17T02:46:53.313Z,98598.09
2017-11-17T02:47:58.314Z,98600.03
2017-11-17T02:49:03.055Z,98606.63
2017-11-17T02:50:08.049Z,98606.17
2017-11-17T02:51:13.250Z,98603.38
2017-11-17T02:52:18.092Z,98605.36
2017-11-17T02:53:23.201Z,98604.75
2017-11-17T02:54:29.185Z,98601.52
2017-11-17T02:55:33.967Z,98601.65
2017-11-17T02:56:38.767Z,98599.97
2017-11-17T02:57:43.557Z,98605.59
2017-11-17T02:58:48.375Z,98602.62
2017-11-17T02:59:53.462Z,98605.57
2017-11-17T03:00:58.296Z,98598.13
2017-11-17T03:02:03.199Z,98606.02
2017-11-17T03:03:08.002Z,98604.34
2017-11-17T03:04:12.655Z,98601.35
2017-11-17T03:05:17.299Z,98600.95
2017-11-17T03:06:22.394Z,98593.97
2017-11-17T03:07:28.348Z,98596.96
2017-11-17T03:08:33.197Z,98602.11
2017-11-17T03:09:39.659Z,98601.11
2017-11-17T03:10:44.475Z,98602.28
2017-11-17T03:11:49.046Z,98601.84
2017-11-17T03:12:54.257Z,98601.83
2017-11-17T03:13:58.912Z,98604.08
2017-11-17T03:15:03.591Z,98599.01
2017-11-17T03:16:08.266Z,98605.55
2017-11-17T03:17:12.924Z,98608.29
2017-11-17T03:18:17.569Z,98599.08
2017-11-17T03:19:22.626Z,98606.84
2017-11-17T03:20:27.279Z,98606.31
2017-11-17T03:21:31.961Z,98603.91
2017-11-17T03:22:36.628Z,98608.88
2017-11-17T03:23:41.258Z,98605.16
2017-11-17T03:24:45.948Z,98604.84
2017-11-17T03:25:51.356Z,98609.91
2017-11-17T03:26:57.462Z,98607.35
2017-11-17T03:28:02.103Z,98606.47
2017-11-17T03:29:06.794Z,98614.32
2017-11-17T03:30:11.479Z,98606.59
2017-11-17T03:31:16.187Z,98613.24
2017-11-17T03:32:21.550Z,98608.98
2017-11-17T03:33:26.353Z,98615.28
2017-11-17T03:34:31.136Z,98609.74
2017-11-17T03:35:37.860Z,98608.74
2017-11-17T03:36:42.639Z,98609.64
2017-11-17T03:37:48.969Z,98613.89
2017-11-17T03:38:54.049Z,98609.03
2017-11-17T03:39:58.857Z,98607.58
2017-11-17T03:41:03.680Z,98612.90
2017-11-17T03:42:08.354Z,98602.22
2017-11-17T03:43:13.014Z,98611.64
2017-11-17T03:44:17.953Z,98609.05
2017-11-17T03:45:22.960Z,98611.76
2017-11-17T03:46:27.796Z,98607.94
2017-11-17T03:47:32.615Z,98615.36
2017-11-17T03:48:37.320Z,98613.41
2017-11-17T03:49:42.142Z,98614.83
2017-11-17T03:50:46.783Z,98618.05
2017-11-17T03:51:51.754Z,98620.79
2017-11-17T03:52:56.423Z,98621.58
2017-11-17T03:54:01.224Z,98620.26
2017-11-17T03:55:06.977Z,98620.09
2017-11-17T03:56:11.782Z,98618.84
2017-11-17T03:57:16.566Z,98622.67
2017-11-17T03:58:21.636Z,98626.48
2017-11-17T03:59:26.683Z,98631.70
2017-11-17T04:00:31.647Z,98631.36
2017-11-17T04:01:36.641Z,98629.70
2017-11-17T04:02:42.752Z,98632.48
2017-11-17T04:03:47.834Z,98632.18
2017-11-17T04:04:52.629Z,98633.69
2017-11-17T04:05:57.385Z,98633.39
2017-11-17T04:07:02.488Z,98631.87
2017-11-17T04:08:07.345Z,98635.13
2017-11-17T04:09:12.282Z,98639.23
2017-11-17T04:10:17.427Z,98638.42
2017-11-17T04:11:22.362Z,98635.59
2017-11-17T04:12:27.358Z,98641.22
2017-11-17T04:13:32.153Z,98644.63
2017-11-17T04:14:36.985Z,98646.72
2017-11-17T04:15:41.782Z,98643.08
2017-11-17T04:16:46.865Z,98648.00
2017-11-17T04:17:51.692Z,98650.56
2017-11-17T04:18:56.522Z,98647.16
2017-11-17T04:20:01.331Z,98648.91
2017-11-17T04:21:06.102Z,98648.95
2017-11-17T04:22:10.874Z,98649.40
2017-11-17T04:23:15.946Z,98645.24
2017-11-17T04:24:20.701Z,98651.77
2017-11-17T04:25:25.491Z,98644.61
2017-11-17T04:26:30.271Z,98643.38
2017-11-17T04:27:35.042Z,98645.75
2017-11-17T04:28:39.757Z,98649.75
2017-11-17T04:29:44.925Z,98643.42
2017-11-17T04:30:49.751Z,98642.81
2017-11-17T04:31:54.671Z,98649.17
2017-11-17T04:32:59.465Z,98646.77
2017-11-17T04:34:05.184Z,98648.81
2017-11-17T04:35:10.020Z,98648.22
2017-11-17T04:36:15.178Z,98649.59
2017-11-17T04:37:20.012Z,98647.39
2017-11-17T04:38:24.833Z,98650.73
2017-11-17T04:39:29.608Z,98652.16
2017-11-17T04:40:34.443Z,98650.98
2017-11-17T04:41:39.252Z,98647.81
2017-11-17T04:42:44.442Z,98651.06
2017-11-17T04:43:49.291Z,98643.41
2017-11-17T04:44:54.062Z,98647.89
2017-11-17T04:45:58.900Z,98640.65
2017-11-17T04:47:03.723Z,98643.16
2017-11-17T04:48:08.624Z,98649.22
2017-11-17T04:49:13.691Z,98649.67
2017-11-17T04:50:18.532Z,98647.93
2017-11-17T04:51:23.341Z,98653.23
2017-11-17T04:52:28.154Z,98656.28
2017-11-17T04:53:32.932Z,98655.59
2017-11-17T04:54:37.874Z,98660.49
2017-11-17T04:55:42.998Z,98654.66
2017-11-17T04:56:47.853Z,98662.27
2017-11-17T04:57:52.978Z,98663.86
2017-11-17T04:58:57.860Z,98657.57
2017-11-17T05:00:02.696Z,98662.96
2017-11-17T05:15:07.028Z,98648.32
2017-11-17T05:16:11.976Z,98648.22
2017-11-17T05:17:16.566Z,98651.58
2017-11-17T05:18:21.275Z,98649.59
2017-11-17T05:19:26.047Z,98653.00
2017-11-17T05:20:31.025Z,98646.95
2017-11-17T05:21:35.792Z,98648.55
2017-11-17T05:22:40.553Z,98654.32
2017-11-17T05:23:45.290Z,98655.39
2017-11-17T05:24:50.009Z,98654.18
2017-11-17T05:25:54.961Z,98659.91
2017-11-17T05:27:00.023Z,98657.49
2017-11-17T05:28:05.811Z,98658.74
2017-11-17T05:29:10.540Z,98663.45
2017-11-17T05:30:15.250Z,98666.84
2017-11-17T05:31:19.962Z,98660.75
2017-11-17T05:32:24.716Z,98665.61
2017-11-17T05:33:29.745Z,98661.55
2017-11-17T05:34:34.462Z,98664.74
2017-11-17T05:35:39.182Z,98663.72
2017-11-17T05:36:43.969Z,98656.02
2017-11-17T05:37:48.687Z,98674.69
2017-11-17T05:38:53.493Z,98665.39
2017-11-17T05:39:58.785Z,98675.85
2017-11-17T05:41:03.536Z,98671.75
2017-11-17T05:42:08.336Z,98675.13
2017-11-17T05:43:13.084Z,98671.86
2017-11-17T05:44:17.805Z,98670.20
2017-11-17T05:45:22.527Z,98672.46
2017-11-17T05:46:27.838Z,98668.81
2017-11-17T05:47:32.549Z,98668.31
2017-11-17T05:48:37.273Z,98672.98
2017-11-17T05:49:42.051Z,98672.88
2017-11-17T05:50:46.784Z,98667.02
2017-11-17T05:51:51.534Z,98668.16
2017-11-17T05:52:56.528Z,98667.98
2017-11-17T05:54:01.307Z,98671.88
2017-11-17T05:55:06.093Z,98668.60
2017-11-17T05:56:10.885Z,98672.19
2017-11-17T05:57:15.678Z,98666.97
2017-11-17T05:58:20.412Z,98671.59
2017-11-17T05:59:25.450Z,98679.53
2017-11-17T06:00:30.159Z,98679.91
2017-11-17T06:01:34.963Z,98677.84
2017-11-17T06:02:39.726Z,98685.42
2017-11-17T06:03:44.603Z,98684.27
2017-11-17T06:04:49.773Z,98682.05
2017-11-17T06:05:54.949Z,98684.04
2017-11-17T06:06:59.861Z,98682.66
2017-11-17T06:08:04.723Z,98683.10
2017-11-17T06:09:09.637Z,98683.83
2017-11-17T06:10:14.513Z,98681.94
2017-11-17T06:11:19.367Z,98683.92
2017-11-17T06:12:24.596Z,98691.52
2017-11-17T06:13:29.388Z,98692.13
2017-11-17T06:14:34.223Z,98694.84
2017-11-17T06:15:39.098Z,98694.08
2017-11-17T06:16:43.950Z,98695.98
2017-11-17T06:17:48.797Z,98697.85
2017-11-17T06:18:53.924Z,98702.94
2017-11-17T06:19:58.759Z,98702.53
2017-11-17T06:21:03.566Z,98701.14
2017-11-17T06:22:08.381Z,98699.89
2017-11-17T06:23:13.200Z,98706.48
2017-11-17T06:24:18.050Z,98707.94
2017-11-17T06:25:23.374Z,98704.38
2017-11-17T06:26:28.214Z,98702.79
2017-11-17T06:27:33.519Z,98704.30
2017-11-17T06:28:38.359Z,98709.97
2017-11-17T06:29:43.282Z,98710.92
2017-11-17T06:30:48.108Z,98712.47
2017-11-17T06:31:53.273Z,98713.17
2017-11-17T06:32:58.119Z,98714.86
2017-11-17T06:34:02.949Z,98715.38
2017-11-17T06:35:07.774Z,98714.54
2017-11-17T06:36:12.605Z,98714.41
2017-11-17T06:37:17.424Z,98718.92
2017-11-17T06:38:22.665Z,98715.94
2017-11-17T06:39:27.468Z,98716.66
2017-11-17T06:40:32.205Z,98717.59
2017-11-17T06:41:36.921Z,98716.52
2017-11-17T06:42:41.759Z,98718.11
2017-11-17T06:43:46.624Z,98721.47
2017-11-17T06:44:51.786Z,98716.44
2017-11-17T06:45:56.640Z,98717.27
2017-11-17T06:47:01.477Z,98712.13
2017-11-17T06:48:06.330Z,98709.67
2017-11-17T06:49:11.232Z,98713.20
2017-11-17T06:50:16.427Z,98712.98
2017-11-17T06:51:21.556Z,98723.15
2017-11-17T06:52:26.518Z,98718.41
2017-11-17T06:53:31.413Z,98718.91
2017-11-17T06:54:36.272Z,98720.27
2017-11-17T06:55:41.089Z,98716.44
2017-11-17T06:56:45.917Z,98722.95
2017-11-17T06:57:51.052Z,98723.57
2017-11-17T06:58:55.915Z,98721.09
2017-11-17T07:00:00.697Z,98722.25
2017-11-17T07:01:05.689Z,98723.88
2017-11-17T07:02:10.508Z,98719.00
2017-11-17T07:03:15.253Z,98724.08
2017-11-17T07:04:20.375Z,98717.59
2017-11-17T07:05:25.081Z,98719.10
2017-11-17T07:06:29.859Z,98719.41
2017-11-17T07:07:34.634Z,98719.84
2017-11-17T07:08:39.365Z,98728.69
2017-11-17T07:09:44.076Z,98726.55
2017-11-17T07:10:49.091Z,98725.00
2017-11-17T07:11:53.959Z,98725.66
2017-11-17T07:12:58.843Z,98725.59
2017-11-17T07:14:03.778Z,98727.91
2017-11-17T07:15:08.705Z,98730.95
2017-11-17T07:16:13.602Z,98733.30
2017-11-17T07:17:18.805Z,98728.13
2017-11-17T07:18:23.618Z,98731.56
2017-11-17T07:19:28.466Z,98732.50
2017-11-17T07:20:33.308Z,98738.55
2017-11-17T07:21:38.109Z,98733.41
2017-11-17T07:22:42.987Z,98736.47
2017-11-17T07:23:48.513Z,98735.13
2017-11-17T07:24:53.398Z,98734.67
2017-11-17T07:25:58.276Z,98741.79
2017-11-17T07:27:03.148Z,98727.19
2017-11-17T07:28:08.003Z,98736.94
2017-11-17T07:29:12.791Z,98734.40
2017-11-17T07:30:17.883Z,98738.06
2017-11-17T07:31:22.665Z,98742.15
2017-11-17T07:32:27.420Z,98742.00
2017-11-17T07:33:32.195Z,98744.28
2017-11-17T07:34:36.943Z,98749.84
2017-11-17T07:35:41.719Z,98752.63
2017-11-17T07:36:46.514Z,98750.37
2017-11-17T07:37:51.744Z,98749.77
2017-11-17T07:38:56.517Z,98756.48
2017-11-17T07:40:01.409Z,98753.07
2017-11-17T07:41:06.184Z,98753.30
2017-11-17T07:42:11.302Z,98756.02
2017-11-17T07:43:16.105Z,98760.41
2017-11-17T07:44:20.847Z,98769.11
2017-11-17T07:45:25.564Z,98759.55
2017-11-17T07:46:30.329Z,98766.53
2017-11-17T07:47:35.049Z,98766.84
2017-11-17T07:48:40.170Z,98766.11
2017-11-17T07:49:44.877Z,98766.69
2017-11-17T07:50:49.790Z,98770.44
2017-11-17T07:51:54.601Z,98772.31
2017-11-17T07:52:59.264Z,98771.09
2017-11-17T07:54:03.969Z,98772.97
2017-11-17T07:55:09.125Z,98766.39
2017-11-17T07:56:14.042Z,98774.85
2017-11-17T07:57:18.856Z,98772.91
2017-11-17T07:58:24.400Z,98776.32
2017-11-17T07:59:29.167Z,98772.89
2017-11-17T08:00:33.992Z,98776.63
2017-11-17T08:01:38.752Z,98783.32
2017-11-17T08:02:43.599Z,98780.05
2017-11-17T08:03:49.767Z,98781.66
2017-11-17T08:04:54.706Z,98780.05
2017-11-17T08:05:59.688Z,98780.80
2017-11-17T08:07:04.780Z,98779.50
2017-11-17T08:08:09.627Z,98784.09
2017-11-17T08:09:14.422Z,98780.53
2017-11-17T08:10:19.259Z,98782.70
2017-11-17T08:11:24.095Z,98784.23
2017-11-17T08:12:28.889Z,98785.03
2017-11-17T08:13:34.046Z,98785.00
2017-11-17T08:30:40.381Z,98789.59
2017-11-17T08:31:45.479Z,98787.50
2017-11-17T08:32:50.255Z,98790.02
2017-11-17T08:33:55.486Z,98789.16
2017-11-17T08:35:00.250Z,98792.25
2017-11-17T08:36:05.421Z,98797.80
2017-11-17T08:37:10.266Z,98799.51
2017-11-17T08:38:15.041Z,98799.56
2017-11-17T08:39:19.795Z,98802.77
2017-11-17T08:40:24.616Z,98797.63
2017-11-17T08:41:29.413Z,98801.11
2017-11-17T08:42:34.471Z,98796.80
2017-11-17T08:43:39.324Z,98797.15
2017-11-17T08:44:44.077Z,98797.91
2017-11-17T08:45:49.202Z,98798.09
2017-11-17T08:46:53.940Z,98802.92
2017-11-17T08:47:59.128Z,98801.34
2017-11-17T08:49:04.001Z,98803.59
2017-11-17T08:50:08.646Z,98802.30
2017-11-17T08:51:13.216Z,98801.36
2017-11-17T08:52:17.821Z,98800.00
2017-11-17T08:53:22.439Z,98803.19
2017-11-17T08:54:27.184Z,98809.09
2017-11-17T08:55:32.298Z,98799.48
2017-11-17T08:56:37.111Z,98806.59
2017-11-17T08:57:41.873Z,98801.70
2017-11-17T08:58:46.629Z,98804.87
2017-11-17T08:59:51.374Z,98805.30
2017-11-17T09:00:56.155Z,98806.03
2017-11-17T09:02:01.308Z,98802.53
2017-11-17T09:03:06.960Z,98806.56
2017-11-17T09:04:12.429Z,98808.57
2017-11-17T09:05:17.287Z,98806.41
2017-11-17T09:06:22.242Z,98802.89
2017-11-17T09:07:27.162Z,98803.66
2017-11-17T09:08:32.345Z,98811.26
2017-11-17T09:09:37.243Z,98811.87
2017-11-17T09:10:42.257Z,98807.94
2017-11-17T09:11:47.019Z,98806.09
2017-11-17T09:12:51.963Z,98811.23
2017-11-17T09:13:56.816Z,98809.38
2017-11-17T09:15:02.153Z,98808.89
2017-11-17T09:16:06.963Z,98805.09
2017-11-17T09:17:11.790Z,98810.65
2017-11-17T09:18:16.662Z,98809.38
2017-11-17T09:19:21.509Z,98802.01
2017-11-17T09:20:26.917Z,98796.41
2017-11-17T09:21:32.156Z,98808.62
2017-11-17T09:22:36.984Z,98795.57
2017-11-17T09:23:41.814Z,98801.30
2017-11-17T09:24:47.053Z,98805.28
2017-11-17T09:25:51.984Z,98803.71
2017-11-17T09:26:56.872Z,98808.90
2017-11-17T09:28:02.121Z,98808.31
2017-11-17T09:29:07.050Z,98803.11
2017-11-17T09:30:12.433Z,98804.91
2017-11-17T09:31:17.331Z,98806.12
2017-11-17T09:32:22.252Z,98809.52
2017-11-17T09:33:27.162Z,98809.11
2017-11-17T09:34:32.423Z,98815.67
2017-11-17T09:35:37.310Z,98809.89
2017-11-17T09:36:42.324Z,98815.39
2017-11-17T09:37:47.169Z,98808.70
2017-11-17T09:38:52.034Z,98813.19
2017-11-17T09:39:56.894Z,98812.64
2017-11-17T09:41:02.267Z,98808.48
2017-11-17T09:42:07.539Z,98810.20
2017-11-17T09:43:12.396Z,98818.08
2017-11-17T09:44:17.218Z,98811.99
2017-11-17T09:45:22.056Z,98812.05
2017-11-17T09:46:27.465Z,98817.87
2017-11-17T09:47:32.856Z,98815.56
2017-11-17T09:48:37.726Z,98815.64
2017-11-17T09:49:42.606Z,98813.73
2017-11-17T09:50:47.438Z,98816.72
2017-11-17T09:51:52.326Z,98819.59
2017-11-17T09:52:57.604Z,98818.22
2017-11-17T09:54:02.895Z,98821.34
2017-11-17T09:55:07.790Z,98822.80
2017-11-17T09:56:12.929Z,98819.48
2017-11-17T09:57:19.455Z,98830.94
2017-11-17T09:58:24.396Z,98821.33
2017-11-17T09:59:29.321Z,98822.24
2017-11-17T10:00:34.520Z,98826.58
2017-11-17T10:01:39.328Z,98829.03
2017-11-17T10:02:44.296Z,98830.50
2017-11-17T10:03:49.109Z,98828.47
2017-11-17T10:04:53.965Z,98826.59
2017-11-17T10:05:58.711Z,98826.52
2017-11-17T10:07:03.844Z,98818.75
2017-11-17T10:08:08.743Z,98816.32
2017-11-17T10:09:13.580Z,98823.34
2017-11-17T10:10:18.349Z,98814.69
2017-11-17T10:11:23.161Z,98813.45
2017-11-17T10:12:27.925Z,98812.48
2017-11-17T10:13:33.139Z,98815.23
2017-11-17T10:14:37.942Z,98817.88
2017-11-17T10:16:57.764Z,98822.05
2017-11-17T10:18:02.522Z,98820.23
2017-11-17T10:19:07.312Z,98820.91
2017-11-17T10:20:12.564Z,98822.69
2017-11-17T10:21:17.341Z,98816.68
2017-11-17T10:22:22.114Z,98816.34
2017-11-17T10:24:50.206Z,98822.67
2017-11-17T10:25:55.142Z,98817.56
2017-11-17T10:26:59.950Z,98821.73
2017-11-17T10:28:04.677Z,98824.23
2017-11-17T10:29:10.178Z,98815.34
2017-11-17T10:30:15.084Z,98823.34
2017-11-17T10:31:20.292Z,98821.08
2017-11-17T10:32:24.961Z,98818.28
2017-11-17T10:33:29.693Z,98809.36
2017-11-17T10:34:34.547Z,98812.37
2017-11-17T10:35:40.313Z,98817.03
2017-11-17T10:36:45.491Z,98810.91
2017-11-17T10:37:50.235Z,98811.20
2017-11-17T10:38:56.152Z,98808.70
2017-11-17T10:40:00.921Z,98808.38
2017-11-17T10:41:06.864Z,98810.63
2017-11-17T10:42:12.897Z,98811.35
2017-11-17T10:43:17.986Z,98808.68
2017-11-17T10:44:22.602Z,98814.45
2017-11-17T10:45:29.598Z,98810.70
2017-11-17T10:46:35.821Z,98813.71
2017-11-17T10:47:40.542Z,98816.33
2017-11-17T10:48:45.373Z,98812.84
2017-11-17T10:49:50.977Z,98810.89
2017-11-17T10:50:55.817Z,98811.05
2017-11-17T10:52:00.764Z,98813.95
2017-11-17T10:53:06.297Z,98809.15
2017-11-17T10:54:11.179Z,98812.39
2017-11-17T10:55:16.016Z,98809.57
2017-11-17T10:56:34.955Z,98814.70
2017-11-17T10:57:39.707Z,98805.30
2017-11-17T10:58:44.433Z,98810.10
2017-11-17T11:15:36.798Z,98803.77
2017-11-17T11:16:42.067Z,98806.09
2017-11-17T11:17:48.391Z,98798.45
2017-11-17T11:18:53.629Z,98797.25
2017-11-17T11:19:58.515Z,98807.62
2017-11-17T11:21:03.660Z,98803.81
2017-11-17T11:22:08.434Z,98798.92
2017-11-17T11:23:13.186Z,98806.63
2017-11-17T11:24:17.990Z,98803.45
2017-11-17T11:25:22.860Z,98803.41
2017-11-17T11:26:27.663Z,98798.28
2017-11-17T11:27:32.694Z,98799.48
2017-11-17T11:28:37.408Z,98801.19
2017-11-17T11:29:42.514Z,98802.86
2017-11-17T11:30:47.334Z,98806.44
2017-11-17T11:31:52.126Z,98800.83
2017-11-17T11:32:56.913Z,98796.67
2017-11-17T11:34:02.213Z,98796.11
2017-11-17T11:35:07.099Z,98802.45
2017-11-17T11:36:12.004Z,98798.38
2017-11-17T11:37:16.877Z,98800.42
2017-11-17T11:38:21.702Z,98797.75
2017-11-17T11:39:27.248Z,98798.77
2017-11-17T11:40:32.527Z,98800.27
2017-11-17T11:41:38.203Z,98795.24
2017-11-17T11:42:43.108Z,98793.42
2017-11-17T11:43:47.891Z,98792.69
2017-11-17T11:44:52.714Z,98792.94
2017-11-17T11:45:57.601Z,98786.06
2017-11-17T11:47:02.891Z,98792.76
2017-11-17T11:48:07.765Z,98788.16
2017-11-17T11:49:12.525Z,98794.88
2017-11-17T11:50:17.325Z,98794.63
2017-11-17T11:51:22.282Z,98795.83
2017-11-17T11:52:27.140Z,98798.08
2017-11-17T11:53:32.524Z,98804.92
2017-11-17T11:54:37.326Z,98792.53
2017-11-17T11:55:42.180Z,98795.55
2017-11-17T11:56:47.366Z,98796.13
2017-11-17T11:57:53.102Z,98796.67
2017-11-17T11:58:58.551Z,98796.91
2017-11-17T12:00:04.655Z,98801.51
2017-11-17T12:01:09.966Z,98793.16
2017-11-17T12:02:14.773Z,98787.19
2017-11-17T12:03:19.557Z,98790.54
2017-11-17T12:04:24.537Z,98794.53
2017-11-17T12:05:29.309Z,98789.29
2017-11-17T12:06:34.092Z,98785.35
2017-11-17T12:07:39.659Z,98784.97
2017-11-17T12:08:44.873Z,98789.13
2017-11-17T12:09:51.478Z,98787.55
2017-11-17T12:10:56.239Z,98783.53
2017-11-17T12:12:01.433Z,98790.27
2017-11-17T12:13:06.200Z,98788.77
2017-11-17T12:14:12.211Z,98785.38
2017-11-17T12:15:18.031Z,98785.89
2017-11-17T12:16:23.712Z,98788.42
2017-11-17T12:17:28.529Z,98785.38
2017-11-17T12:18:35.614Z,98783.89
2017-11-17T12:19:41.337Z,98787.73
2017-11-17T12:20:46.822Z,98785.48
2017-11-17T12:21:51.752Z,98780.73
2017-11-17T12:22:57.060Z,98776.76
2017-11-17T12:24:02.905Z,98782.44
2017-11-17T12:25:07.887Z,98780.70
2017-11-17T12:26:13.731Z,98778.81
2017-11-17T12:27:18.604Z,98781.34
2017-11-17T12:28:24.400Z,98779.22
2017-11-17T12:29:29.505Z,98779.16
2017-11-17T12:30:34.237Z,98773.11
2017-11-17T12:31:39.093Z,98778.47
2017-11-17T12:32:43.889Z,98780.69
2017-11-17T12:33:48.669Z,98779.02
2017-11-17T12:34:53.442Z,98778.52
2017-11-17T12:35:58.484Z,98775.61
2017-11-17T12:37:03.408Z,98776.89
2017-11-17T12:38:08.273Z,98774.17
2017-11-17T12:39:13.153Z,98769.75
2017-11-17T12:40:18.320Z,98770.62
2017-11-17T12:41:23.769Z,98771.12
2017-11-17T12:42:29.086Z,98775.14
2017-11-17T12:43:33.985Z,98776.34
2017-11-17T12:44:39.781Z,98765.89
2017-11-17T12:45:44.728Z,98777.00
2017-11-17T12:46:49.579Z,98775.23
2017-11-17T12:47:56.609Z,98771.03
2017-11-17T12:49:01.402Z,98772.08
2017-11-17T12:50:06.214Z,98767.98
2017-11-17T12:51:11.177Z,98775.02
2017-11-17T12:52:16.099Z,98767.38
2017-11-17T12:53:20.990Z,98770.42
2017-11-17T12:54:25.729Z,98771.17
2017-11-17T12:55:30.906Z,98774.58
2017-11-17T12:56:36.514Z,98774.96
2017-11-17T12:57:41.314Z,98770.89
2017-11-17T12:58:46.438Z,98772.30
2017-11-17T12:59:51.451Z,98770.44
2017-11-17T13:00:56.277Z,98765.52
2017-11-17T13:02:01.694Z,98770.82
2017-11-17T13:03:06.511Z,98764.94
2017-11-17T13:04:12.551Z,98766.27
2017-11-17T13:05:17.297Z,98764.36
2017-11-17T13:06:22.374Z,98760.59
2017-11-17T13:07:28.465Z,98764.30
2017-11-17T13:08:33.412Z,98759.44
2017-11-17T13:09:38.299Z,98760.44
2017-11-17T13:10:43.215Z,98757.91
2017-11-17T13:11:47.979Z,98761.53
2017-11-17T13:12:52.908Z,98765.59
2017-11-17T13:13:57.749Z,98752.98
2017-11-17T13:15:02.889Z,98758.51
2017-11-17T13:16:07.750Z,98754.91
2017-11-17T13:17:12.722Z,98752.70
2017-11-17T13:18:18.024Z,98754.16
2017-11-17T13:19:23.434Z,98757.45
2017-11-17T13:20:28.251Z,98756.80
2017-11-17T13:21:33.532Z,98754.14
2017-11-17T13:22:38.291Z,98757.31
2017-11-17T13:23:43.081Z,98751.78
2017-11-17T13:24:48.390Z,98757.50
2017-11-17T13:25:53.289Z,98754.31
2017-11-17T13:26:59.021Z,98757.50
2017-11-17T13:28:04.442Z,98749.57
2017-11-17T13:29:09.281Z,98745.97
2017-11-17T13:34:18.778Z,98753.44
2017-11-17T13:35:24.158Z,98744.61
2017-11-17T13:36:29.081Z,98748.12
2017-11-17T13:37:34.044Z,98748.12
2017-11-17T13:38:38.973Z,98747.22
2017-11-17T13:39:43.886Z,98744.13
2017-11-17T13:40:48.991Z,98753.66
2017-11-17T13:41:54.060Z,98739.08
2017-11-17T13:42:58.907Z,98739.66
2017-11-17T13:44:03.891Z,98740.85
2017-11-17T13:45:08.728Z,98743.25
2017-11-17T13:46:13.530Z,98745.11
2017-11-17T13:47:18.790Z,98749.30
2017-11-17T13:48:24.111Z,98744.45
2017-11-17T13:49:29.083Z,98746.55
2017-11-17T13:50:33.863Z,98745.81
2017-11-17T13:51:39.306Z,98743.81